createdAt,value
2024-02-23T00:02:13.475Z,9.90
2024-02-23T00:05:00.033Z,9.80
2024-02-23T00:07:46.581Z,9.80
2024-02-23T00:10:33.298Z,9.90
2024-02-23T00:13:21.280Z,9.80
2024-02-23T00:16:08.483Z,9.80
2024-02-23T00:18:55.276Z,9.80
2024-02-23T00:21:43.408Z,9.70
2024-02-23T00:24:30.056Z,9.70
2024-02-23T00:27:16.619Z,9.70
2024-02-23T00:30:05.361Z,9.60
2024-02-23T00:32:51.878Z,9.70
2024-02-23T00:35:38.283Z,9.70
2024-02-23T00:38:24.966Z,9.60
2024-02-23T00:41:11.715Z,9.60
2024-02-23T00:43:58.359Z,9.60
2024-02-23T00:46:46.356Z,9.40
2024-02-23T00:49:33.291Z,9.20
2024-02-23T00:52:20.075Z,8.70
2024-02-23T00:55:09.300Z,8.60
2024-02-23T00:57:56.135Z,8.50
2024-02-23T01:00:42.976Z,8.40
2024-02-23T01:03:31.540Z,8.30
2024-02-23T01:06:18.703Z,8.30
2024-02-23T01:09:06.386Z,8.30
2024-02-23T01:11:53.020Z,8.20
2024-02-23T01:14:40.183Z,8.00
2024-02-23T01:17:26.952Z,7.70
2024-02-23T01:20:15.689Z,7.60
2024-02-23T01:23:02.734Z,7.50
2024-02-23T01:25:49.608Z,7.50
2024-02-23T01:28:36.168Z,7.20
2024-02-23T01:31:22.756Z,7.30
2024-02-23T01:34:09.442Z,7.40
2024-02-23T01:36:57.694Z,7.30
2024-02-23T01:39:44.386Z,7.20
2024-02-23T01:42:31.019Z,7.00
2024-02-23T01:45:17.784Z,7.00
2024-02-23T01:48:04.948Z,6.90
2024-02-23T01:50:51.690Z,6.90
2024-02-23T01:53:41.208Z,6.90
2024-02-23T01:56:28.375Z,7.00
2024-02-23T01:59:16.730Z,6.90
2024-02-23T02:02:04.202Z,6.90
2024-02-23T02:04:51.098Z,6.80
2024-02-23T02:07:37.589Z,6.70
2024-02-23T02:10:25.586Z,6.80
2024-02-23T02:13:12.547Z,6.70
2024-02-23T02:16:00.459Z,6.70
2024-02-23T02:18:47.176Z,6.80
2024-02-23T02:21:33.885Z,6.60
2024-02-23T02:24:22.015Z,6.60
2024-02-23T02:27:10.175Z,6.70
2024-02-23T02:29:57.056Z,6.70
2024-02-23T02:32:43.865Z,6.70
2024-02-23T02:35:30.857Z,6.70
2024-02-23T02:38:17.973Z,6.60
2024-02-23T02:41:05.679Z,6.60
2024-02-23T02:43:53.598Z,6.70
2024-02-23T02:46:40.249Z,6.60
2024-02-23T02:49:26.814Z,6.60
2024-02-23T02:52:14.099Z,6.70
2024-02-23T02:55:00.542Z,6.50
2024-02-23T02:57:47.364Z,6.70
2024-02-23T03:00:35.819Z,6.60
2024-02-23T03:03:23.714Z,6.50
2024-02-23T03:06:10.664Z,6.60
2024-02-23T03:08:57.581Z,6.60
2024-02-23T03:11:44.199Z,6.60
2024-02-23T03:14:30.752Z,6.70
2024-02-23T03:17:18.813Z,6.70
2024-02-23T03:20:09.747Z,6.70
2024-02-23T03:22:56.583Z,6.70
2024-02-23T03:25:43.117Z,6.60
2024-02-23T03:28:29.750Z,6.50
2024-02-23T03:31:16.326Z,6.60
2024-02-23T03:34:04.717Z,6.60
2024-02-23T03:36:51.508Z,6.60
2024-02-23T03:39:38.442Z,6.70
2024-02-23T03:42:25.099Z,6.70
2024-02-23T03:45:11.839Z,6.70
2024-02-23T03:47:58.647Z,6.80
2024-02-23T03:50:46.479Z,6.80
2024-02-23T03:53:33.312Z,6.90
2024-02-23T03:56:20.114Z,6.80
2024-02-23T03:59:06.927Z,6.80
2024-02-23T04:01:53.287Z,6.90
2024-02-23T04:04:40.256Z,6.90
2024-02-23T04:07:28.325Z,6.90
2024-02-23T04:10:17.531Z,7.00
2024-02-23T04:13:04.491Z,6.90
2024-02-23T04:15:51.081Z,6.90
2024-02-23T04:18:37.517Z,6.90
2024-02-23T04:21:23.991Z,7.00
2024-02-23T04:24:12.198Z,7.00
2024-02-23T04:26:58.615Z,7.00
2024-02-23T04:29:45.222Z,7.00
2024-02-23T04:32:32.140Z,7.00
2024-02-23T04:35:18.993Z,7.00
2024-02-23T04:38:06.253Z,7.10
2024-02-23T04:40:54.274Z,7.10
2024-02-23T04:43:41.827Z,7.00
2024-02-23T04:46:28.482Z,7.00
2024-02-23T04:49:15.483Z,7.00
2024-02-23T04:52:02.435Z,7.00
2024-02-23T04:54:49.147Z,7.00
2024-02-23T04:57:38.886Z,7.00
2024-02-23T05:00:29.829Z,7.00
2024-02-23T05:03:17.269Z,7.00
2024-02-23T05:06:04.600Z,6.90
2024-02-23T05:08:51.528Z,6.90
2024-02-23T05:11:38.437Z,7.00
2024-02-23T05:14:26.312Z,6.90
2024-02-23T05:17:13.019Z,7.00
2024-02-23T05:19:59.800Z,6.90
2024-02-23T05:22:46.352Z,6.90
2024-02-23T05:25:32.856Z,7.00
2024-02-23T05:28:19.460Z,7.00
2024-02-23T05:31:07.618Z,7.00
2024-02-23T05:33:54.302Z,7.00
2024-02-23T05:36:40.814Z,6.90
2024-02-23T05:39:27.469Z,7.00
2024-02-23T05:42:14.253Z,7.00
2024-02-23T05:45:00.970Z,7.00
2024-02-23T05:47:49.135Z,6.90
2024-02-23T05:50:35.846Z,6.90
2024-02-23T05:53:22.877Z,6.90
2024-02-23T05:56:10.045Z,6.90
2024-02-23T05:58:56.721Z,6.90
2024-02-23T06:01:43.150Z,6.90
2024-02-23T06:04:31.028Z,7.00
2024-02-23T06:07:18.284Z,6.90
2024-02-23T06:10:05.012Z,6.90
2024-02-23T06:12:53.692Z,6.90
2024-02-23T06:15:41.958Z,7.00
2024-02-23T06:18:28.508Z,7.00
2024-02-23T06:21:18.703Z,6.80
2024-02-23T06:24:06.244Z,6.90
2024-02-23T06:26:53.364Z,6.90
2024-02-23T06:29:40.108Z,6.90
2024-02-23T06:32:26.569Z,6.80
2024-02-23T06:35:13.929Z,6.80
2024-02-23T06:38:01.866Z,6.90
2024-02-23T06:40:52.402Z,6.90
2024-02-23T06:43:39.540Z,7.00
2024-02-23T06:46:26.224Z,7.00
2024-02-23T06:49:13.094Z,6.90
2024-02-23T06:51:59.839Z,7.00
2024-02-23T06:54:47.863Z,6.90
2024-02-23T06:57:34.888Z,6.90
2024-02-23T07:00:22.540Z,7.00
2024-02-23T07:03:08.968Z,7.00
2024-02-23T07:05:56.654Z,7.00
2024-02-23T07:08:43.342Z,7.10
2024-02-23T07:11:31.246Z,7.10
2024-02-23T07:14:18.645Z,7.10
2024-02-23T07:17:05.314Z,7.20
2024-02-23T07:19:54.026Z,7.20
2024-02-23T07:22:40.920Z,7.20
2024-02-23T07:25:28.127Z,7.20
2024-02-23T07:28:19.520Z,7.20
2024-02-23T07:31:06.461Z,7.20
2024-02-23T07:33:53.618Z,7.20
2024-02-23T07:36:40.604Z,7.30
2024-02-23T07:39:28.429Z,7.20
2024-02-23T07:42:19.597Z,7.20
2024-02-23T07:45:10.334Z,7.30
2024-02-23T07:47:56.888Z,7.20
2024-02-23T07:50:44.244Z,7.40
2024-02-23T07:53:30.819Z,7.50
2024-02-23T07:56:18.151Z,7.50
2024-02-23T07:59:05.385Z,7.50
2024-02-23T08:01:53.667Z,7.40
2024-02-23T08:04:40.396Z,7.60
2024-02-23T08:07:29.443Z,7.60
2024-02-23T08:10:16.531Z,7.80
2024-02-23T08:13:03.707Z,7.80
2024-02-23T08:15:50.156Z,8.00
2024-02-23T08:18:38.364Z,8.10
2024-02-23T08:21:25.516Z,8.20
2024-02-23T08:24:12.494Z,8.20
2024-02-23T08:26:59.220Z,8.30
2024-02-23T08:29:45.732Z,8.20
2024-02-23T08:32:32.260Z,8.40
2024-02-23T08:35:20.594Z,8.50
2024-02-23T08:38:08.327Z,8.50
2024-02-23T08:40:55.147Z,8.50
2024-02-23T08:43:41.736Z,8.50
2024-02-23T08:46:28.488Z,8.40
2024-02-23T08:49:15.039Z,8.40
2024-02-23T08:52:03.682Z,8.30
2024-02-23T08:54:50.301Z,8.30
2024-02-23T08:57:37.491Z,8.40
2024-02-23T09:00:25.467Z,8.50
2024-02-23T09:03:12.078Z,8.50
2024-02-23T09:05:58.885Z,8.40
2024-02-23T09:08:47.298Z,8.40
2024-02-23T09:11:34.345Z,8.50
2024-02-23T09:14:21.226Z,8.50
2024-02-23T09:17:09.753Z,8.50
2024-02-23T09:19:56.256Z,8.30
2024-02-23T09:22:42.817Z,8.50
2024-02-23T09:25:30.840Z,8.30
2024-02-23T09:28:17.594Z,8.20
2024-02-23T09:31:04.561Z,8.30
2024-02-23T09:33:52.156Z,8.30
2024-02-23T09:36:39.555Z,8.30
2024-02-23T09:39:27.656Z,8.40
2024-02-23T09:42:15.776Z,8.40
2024-02-23T09:45:03.540Z,8.40
2024-02-23T09:47:50.621Z,8.30
2024-02-23T09:50:38.965Z,8.30
2024-02-23T09:53:26.202Z,8.40
2024-02-23T09:56:13.382Z,8.40
2024-02-23T09:59:03.904Z,8.40
2024-02-23T10:01:53.949Z,8.40
2024-02-23T10:04:41.610Z,8.30
2024-02-23T10:07:28.677Z,8.30
2024-02-23T10:10:15.351Z,8.30
2024-02-23T10:13:01.893Z,8.40
2024-02-23T10:16:00.555Z,8.30
2024-02-23T10:18:57.098Z,8.40
2024-02-23T10:21:44.269Z,8.40
2024-02-23T10:24:30.855Z,8.40
2024-02-23T10:27:17.511Z,8.50
2024-02-23T10:30:05.116Z,8.50
2024-02-23T10:32:57.369Z,8.60
2024-02-23T10:35:46.490Z,8.80
2024-02-23T10:38:35.202Z,8.70
2024-02-23T10:41:22.553Z,8.70
2024-02-23T10:44:11.246Z,8.60
2024-02-23T10:47:00.438Z,8.70
2024-02-23T10:49:48.960Z,8.70
2024-02-23T10:52:37.077Z,8.80
2024-02-23T10:55:24.990Z,8.90
2024-02-23T10:58:14.849Z,9.00
2024-02-23T11:01:03.955Z,9.00
2024-02-23T11:03:52.262Z,9.10
2024-02-23T11:06:40.339Z,9.10
2024-02-23T11:09:27.403Z,9.00
2024-02-23T11:12:24.312Z,9.00
2024-02-23T11:15:12.017Z,9.00
2024-02-23T11:17:58.747Z,9.10
2024-02-23T11:20:45.803Z,9.00
2024-02-23T11:23:43.403Z,9.00
2024-02-23T11:26:30.303Z,9.00
2024-02-23T11:29:16.989Z,9.00
2024-02-23T11:32:05.520Z,9.00
2024-02-23T11:34:58.897Z,9.00
2024-02-23T11:37:50.520Z,9.10
2024-02-23T11:40:39.867Z,9.10
2024-02-23T11:43:27.720Z,9.20
2024-02-23T11:46:14.295Z,9.40
2024-02-23T11:49:01.347Z,8.30
2024-02-23T11:51:48.432Z,9.50
2024-02-23T11:54:35.443Z,9.50
2024-02-23T11:57:23.671Z,9.40
2024-02-23T12:00:11.782Z,9.30
2024-02-23T12:02:58.606Z,9.40
2024-02-23T12:05:45.290Z,9.50
2024-02-23T12:08:38.962Z,9.50
2024-02-23T12:11:26.249Z,9.50
2024-02-23T12:14:15.603Z,9.40
2024-02-23T12:17:04.762Z,9.40
2024-02-23T12:19:54.019Z,9.40
2024-02-23T12:22:43.160Z,9.50
2024-02-23T12:25:29.993Z,9.50
2024-02-23T12:28:20.432Z,9.50
2024-02-23T12:31:10.616Z,9.50
2024-02-23T12:34:00.169Z,9.50
2024-02-23T12:36:49.453Z,9.50
2024-02-23T12:39:36.305Z,9.50
2024-02-23T12:42:23.057Z,9.50
2024-02-23T12:45:10.212Z,9.50
2024-02-23T12:47:58.457Z,9.50
2024-02-23T12:50:46.404Z,9.50
2024-02-23T12:53:36.380Z,9.50
2024-02-23T12:56:23.417Z,9.50
2024-02-23T12:59:10.543Z,9.60
2024-02-23T13:01:57.115Z,9.60
2024-02-23T13:04:50.270Z,9.70
2024-02-23T13:07:39.830Z,9.70
2024-02-23T13:10:26.603Z,9.70
2024-02-23T13:13:13.977Z,9.80
2024-02-23T13:16:00.921Z,9.80
2024-02-23T13:18:49.066Z,9.90
2024-02-23T13:21:37.169Z,9.90
2024-02-23T13:24:23.886Z,10.00
2024-02-23T13:27:10.404Z,9.90
2024-02-23T13:29:56.910Z,9.90
2024-02-23T13:32:43.732Z,9.90
2024-02-23T13:35:31.093Z,10.00
2024-02-23T13:38:19.711Z,10.00
2024-02-23T13:41:07.164Z,10.10
2024-02-23T13:43:53.890Z,10.10
2024-02-23T13:46:41.259Z,10.20
2024-02-23T13:49:28.072Z,10.30
2024-02-23T13:52:14.665Z,10.40
2024-02-23T13:55:02.898Z,10.40
2024-02-23T13:57:50.616Z,10.60
2024-02-23T14:00:37.422Z,10.70
2024-02-23T14:03:24.534Z,10.80
2024-02-23T14:06:11.868Z,10.60
2024-02-23T14:08:58.997Z,10.60
2024-02-23T14:11:47.509Z,10.50
2024-02-23T14:14:34.577Z,10.50
2024-02-23T14:17:21.513Z,10.50
2024-02-23T14:20:09.083Z,10.40
2024-02-23T14:22:56.142Z,10.30
2024-02-23T14:25:42.742Z,10.30
2024-02-23T14:28:30.583Z,10.30
2024-02-23T14:31:17.481Z,10.30
2024-02-23T14:34:04.173Z,10.20
2024-02-23T14:36:51.152Z,10.30
2024-02-23T14:39:37.788Z,10.30
2024-02-23T14:42:24.316Z,10.20
2024-02-23T14:45:14.145Z,10.20
2024-02-23T14:48:01.825Z,10.60
2024-02-23T14:50:48.688Z,10.10
2024-02-23T14:53:35.715Z,10.00
2024-02-23T14:56:22.329Z,9.90
2024-02-23T14:59:11.540Z,9.90
2024-02-23T15:01:59.693Z,9.80
2024-02-23T15:04:46.643Z,9.80
2024-02-23T15:07:33.471Z,9.80
2024-02-23T15:10:19.991Z,9.80
2024-02-23T15:13:06.799Z,9.60
2024-02-23T15:15:54.588Z,9.60
2024-02-23T15:18:42.433Z,9.60
2024-02-23T15:21:29.330Z,9.50
2024-02-23T15:24:16.087Z,9.60
2024-02-23T15:27:02.771Z,9.50
2024-02-23T15:29:49.886Z,9.60
2024-02-23T15:32:37.348Z,9.60
2024-02-23T15:35:27.714Z,9.60
2024-02-23T15:38:14.432Z,9.60
2024-02-23T15:41:00.957Z,9.70
2024-02-23T15:43:47.565Z,9.60
2024-02-23T15:46:34.061Z,9.60
2024-02-23T15:49:34.369Z,9.70
2024-02-23T15:52:29.320Z,9.80
2024-02-23T15:55:16.047Z,10.00
2024-02-23T15:58:03.230Z,9.90
2024-02-23T16:00:50.173Z,10.00
2024-02-23T16:03:36.835Z,9.90
2024-02-23T16:06:23.224Z,9.80
2024-02-23T16:09:16.004Z,9.70
2024-02-23T16:12:02.802Z,9.70
2024-02-23T16:14:49.758Z,9.70
2024-02-23T16:17:37.479Z,9.70
2024-02-23T16:20:24.137Z,9.60
2024-02-23T16:23:13.508Z,9.60
2024-02-23T16:26:01.655Z,9.60
2024-02-23T16:28:48.455Z,9.50
2024-02-23T16:31:36.864Z,9.50
2024-02-23T16:34:23.680Z,9.40
2024-02-23T16:37:10.253Z,9.40
2024-02-23T16:39:57.011Z,9.30
2024-02-23T16:42:46.530Z,9.40
2024-02-23T16:45:33.123Z,9.40
2024-02-23T16:48:19.574Z,9.40
2024-02-23T16:51:06.614Z,9.40
2024-02-23T16:53:53.413Z,9.40
2024-02-23T16:56:41.369Z,9.40
2024-02-23T16:59:30.286Z,9.40
2024-02-23T17:02:17.183Z,9.40
2024-02-23T17:05:03.924Z,9.50
2024-02-23T17:07:50.986Z,9.40
2024-02-23T17:10:37.682Z,9.40
2024-02-23T17:13:26.588Z,9.40
2024-02-23T17:16:14.929Z,9.40
2024-02-23T17:19:01.907Z,9.40
2024-02-23T17:21:48.621Z,9.50
2024-02-23T17:24:35.265Z,9.40
2024-02-23T17:27:21.735Z,9.40
2024-02-23T17:30:09.514Z,9.40
2024-02-23T17:32:57.659Z,9.50
2024-02-23T17:35:44.227Z,9.50
2024-02-23T17:38:31.161Z,9.50
2024-02-23T17:41:20.195Z,9.40
2024-02-23T17:44:07.930Z,9.40
2024-02-23T17:46:54.856Z,9.40
2024-02-23T17:49:42.862Z,9.40
2024-02-23T17:52:30.013Z,9.40
2024-02-23T17:55:17.308Z,9.50
2024-02-23T17:58:12.212Z,9.50
2024-02-23T18:01:03.166Z,9.50
2024-02-23T18:03:49.697Z,9.50
2024-02-23T18:06:37.667Z,9.40
2024-02-23T18:09:24.505Z,9.40
2024-02-23T18:12:11.212Z,9.40
2024-02-23T18:14:58.155Z,9.40
2024-02-23T18:17:44.965Z,9.40
2024-02-23T18:20:32.075Z,9.40
2024-02-23T18:23:19.988Z,9.40
2024-02-23T18:26:06.797Z,9.40
2024-02-23T18:28:53.443Z,9.30
2024-02-23T18:31:39.989Z,9.30
2024-02-23T18:34:26.728Z,9.30
2024-02-23T18:37:13.870Z,9.30
2024-02-23T18:40:01.717Z,9.20
2024-02-23T18:42:48.531Z,9.20
2024-02-23T18:45:35.803Z,9.10
2024-02-23T18:48:22.562Z,9.10
2024-02-23T18:51:10.173Z,9.10
2024-02-23T18:53:57.872Z,9.00
2024-02-23T18:56:45.964Z,9.00
2024-02-23T18:59:35.387Z,9.00
2024-02-23T19:02:22.394Z,8.90
2024-02-23T19:05:11.593Z,8.90
2024-02-23T19:07:58.302Z,8.90
2024-02-23T19:10:45.288Z,8.90
2024-02-23T19:13:33.521Z,8.90
2024-02-23T19:16:20.851Z,8.90
2024-02-23T19:19:07.607Z,8.90
2024-02-23T19:21:54.429Z,8.80
2024-02-23T19:24:41.203Z,8.70
2024-02-23T19:27:27.883Z,8.70
2024-02-23T19:30:16.816Z,8.70
2024-02-23T19:33:03.780Z,8.70
2024-02-23T19:35:51.054Z,8.70
2024-02-23T19:38:37.707Z,8.60
2024-02-23T19:41:24.789Z,8.60
2024-02-23T19:44:11.770Z,8.60
2024-02-23T19:46:59.986Z,8.60
2024-02-23T19:49:46.806Z,8.60
2024-02-23T19:52:33.505Z,8.60
2024-02-23T19:55:19.911Z,8.50
2024-02-23T19:58:06.542Z,8.60
2024-02-23T20:00:53.558Z,8.60
2024-02-23T20:03:41.621Z,8.60
2024-02-23T20:06:28.433Z,8.60
2024-02-23T20:09:15.030Z,8.60
2024-02-23T20:12:01.767Z,8.60
2024-02-23T20:14:48.857Z,8.60
2024-02-23T20:17:37.757Z,8.60
2024-02-23T20:20:26.367Z,8.60
2024-02-23T20:23:13.178Z,8.60
2024-02-23T20:25:59.837Z,8.60
2024-02-23T20:28:46.312Z,8.50
2024-02-23T20:31:37.900Z,8.50
2024-02-23T20:34:24.612Z,8.50
2024-02-23T20:37:12.814Z,8.50
2024-02-23T20:39:59.674Z,8.50
2024-02-23T20:42:47.834Z,8.50
2024-02-23T20:45:34.350Z,8.50
2024-02-23T20:48:20.991Z,8.40
2024-02-23T20:51:09.083Z,8.50
2024-02-23T20:53:57.090Z,8.50
2024-02-23T20:56:43.739Z,8.50
2024-02-23T20:59:30.526Z,8.50
2024-02-23T21:02:21.757Z,8.50
2024-02-23T21:05:09.420Z,8.50
2024-02-23T21:07:55.977Z,8.50
2024-02-23T21:10:43.901Z,8.40
2024-02-23T21:13:30.476Z,8.40
2024-02-23T21:16:16.917Z,8.30
2024-02-23T21:19:03.560Z,8.30
2024-02-23T21:21:50.845Z,8.30
2024-02-23T21:24:38.226Z,8.30
2024-02-23T21:27:26.213Z,8.20
2024-02-23T21:30:13.429Z,8.10
2024-02-23T21:33:00.380Z,8.10
2024-02-23T21:35:47.357Z,8.10
2024-02-23T21:38:35.701Z,8.10
2024-02-23T21:41:23.124Z,8.00
2024-02-23T21:44:10.989Z,8.00
2024-02-23T21:46:57.973Z,8.00
2024-02-23T21:49:45.635Z,8.00
2024-02-23T21:52:32.377Z,8.00
2024-02-23T21:55:22.563Z,8.00
2024-02-23T21:58:09.578Z,7.90
2024-02-23T22:00:57.376Z,7.80
2024-02-23T22:03:44.239Z,7.80
2024-02-23T22:06:30.837Z,7.80
2024-02-23T22:09:17.478Z,7.90
2024-02-23T22:12:04.730Z,7.80
2024-02-23T22:14:51.619Z,7.80
2024-02-23T22:17:40.404Z,7.80
2024-02-23T22:20:29.212Z,7.80
2024-02-23T22:23:16.068Z,7.80
2024-02-23T22:26:03.338Z,7.70
2024-02-23T22:28:50.311Z,7.70
2024-02-23T22:31:37.095Z,7.70
2024-02-23T22:34:25.241Z,7.60
2024-02-23T22:37:12.751Z,7.60
2024-02-23T22:39:59.699Z,7.60
2024-02-23T22:42:46.318Z,7.50
2024-02-23T22:45:32.915Z,7.50
2024-02-23T22:48:19.453Z,7.40
2024-02-23T22:51:07.365Z,7.30
2024-02-23T22:53:54.198Z,7.30
2024-02-23T22:56:41.487Z,7.30
2024-02-23T22:59:28.310Z,7.30
2024-02-23T23:02:16.253Z,7.30
2024-02-23T23:05:03.684Z,7.20
2024-02-23T23:07:51.927Z,7.20
2024-02-23T23:10:38.903Z,7.10
2024-02-23T23:13:25.375Z,7.00
2024-02-23T23:16:11.911Z,7.00
2024-02-23T23:18:58.503Z,6.90
2024-02-23T23:21:46.629Z,6.90
2024-02-23T23:24:35.446Z,6.80
2024-02-23T23:27:22.099Z,6.70
2024-02-23T23:30:09.574Z,6.70
2024-02-23T23:32:56.541Z,6.60
2024-02-23T23:35:43.600Z,6.60
2024-02-23T23:38:30.149Z,6.60
2024-02-23T23:41:18.208Z,6.60
2024-02-23T23:44:05.202Z,6.60
2024-02-23T23:46:52.024Z,6.50
2024-02-23T23:49:38.524Z,6.50
2024-02-23T23:52:25.174Z,6.50
2024-02-23T23:55:12.301Z,6.50
2024-02-23T23:58:00.108Z,6.50
